Time;durP1;ratioP1;P1;durP2;ratioP2;P2;SDS_P1;SDS_P2;PMS_P1;PMS_P2;Temp;Humidity;BMP_temperature;BMP_pressure;BME280_temperature;BME280_humidity;BME280_pressure;Samples;Min_cycle;Max_cycle;Signal;HPM_P1;HPM_P2
2022/08/11 00:01:54;;;;;;;;;;;;;;;23.69;37.09;100366.00;4436706;32;34096;-81
2022/08/11 00:04:22;;;;;;;;;;;;;;;23.74;37.07;100377.22;4439106;32;34835;-81
2022/08/11 00:06:51;;;;;;;;;;;;;;;23.59;37.88;100365.06;4440549;32;33130;-80
2022/08/11 00:09:20;;;;;;;;;;;;;;;23.79;37.36;100368.72;4440673;32;34525;-81
2022/08/11 00:11:51;;;;;;;;;;;;;;;23.50;38.09;100365.91;4440621;32;33101;-80
2022/08/11 00:14:20;;;;;;;;;;;;;;;23.53;37.88;100365.59;4439191;32;32827;-80
2022/08/11 00:16:57;;;;;;;;;;;;;;;23.70;37.57;100361.44;4428317;32;32990;-81
2022/08/11 00:19:26;;;;;;;;;;;;;;;23.65;37.53;100363.72;4426011;32;32945;-80
2022/08/11 00:22:19;;;;;;;;;;;;;;;23.66;37.22;100358.16;4442847;32;33048;-81
2022/08/11 00:24:48;;;;;;;;;;;;;;;23.89;36.87;100356.09;4429046;32;32873;-80
2022/08/11 00:27:35;;;;;;;;;;;;;;;23.71;38.32;100355.91;4432776;32;281755;-80
2022/08/11 00:30:05;;;;;;;;;;;;;;;23.52;39.37;100353.13;4432517;32;33538;-80
2022/08/11 00:32:33;;;;;;;;;;;;;;;23.48;39.23;100351.69;4430333;32;33050;-81
2022/08/11 00:35:00;;;;;;;;;;;;;;;23.28;40.25;100350.75;4435033;32;34190;-80
2022/08/11 00:37:49;;;;;;;;;;;;;;;23.25;40.44;100351.88;4442883;32;33694;-80
2022/08/11 00:40:40;;;;;;;;;;;;;;;23.22;40.36;100357.56;4437072;32;33816;-81
2022/08/11 00:43:12;;;;;;;;;;;;;;;23.18;40.68;100349.88;4428935;32;34138;-80
2022/08/11 00:45:53;;;;;;;;;;;;;;;22.57;42.47;100355.97;4441431;32;34209;-81
2022/08/11 00:48:23;;;;;;;;;;;;;;;22.96;40.11;100350.88;4454091;32;33950;-80
2022/08/11 00:50:51;;;;;;;;;;;;;;;23.13;38.90;100344.88;4453306;32;33437;-80
2022/08/11 00:53:34;;;;;;;;;;;;;;;23.21;39.65;100345.03;4454510;32;34685;-80
2022/08/11 00:56:05;;;;;;;;;;;;;;;23.35;38.30;100351.91;4452269;32;34663;-80
2022/08/11 00:58:36;;;;;;;;;;;;;;;23.37;38.03;100344.56;4452542;32;33882;-80
2022/08/11 01:01:03;;;;;;;;;;;;;;;23.30;38.41;100347.91;4453666;32;33928;-80
2022/08/11 01:03:50;;;;;;;;;;;;;;;23.32;38.10;100341.44;4454525;32;32659;-80
2022/08/11 01:06:17;;;;;;;;;;;;;;;23.34;38.34;100350.22;4446177;32;33947;-80
2022/08/11 01:08:56;;;;;;;;;;;;;;;23.52;37.97;100345.03;4440274;32;33229;-81
2022/08/11 01:11:34;;;;;;;;;;;;;;;23.56;37.78;100349.16;4419562;32;33826;-80
2022/08/11 01:14:16;;;;;;;;;;;;;;;23.54;37.69;100340.34;4440609;32;32984;-80
2022/08/11 01:17:03;;;;;;;;;;;;;;;23.42;38.14;100346.84;4451395;32;33803;-80
2022/08/11 01:19:35;;;;;;;;;;;;;;;23.79;37.33;100338.19;4440108;32;34796;-80
2022/08/11 01:22:22;;;;;;;;;;;;;;;23.86;37.08;100342.03;4442533;32;32766;-80
2022/08/11 01:25:10;;;;;;;;;;;;;;;23.82;37.19;100332.50;4440355;32;33060;-80
2022/08/11 01:27:57;;;;;;;;;;;;;;;23.63;37.54;100339.53;4443028;32;34942;-80
2022/08/11 01:30:38;;;;;;;;;;;;;;;23.40;38.53;100336.19;4437912;32;33428;-80
2022/08/11 01:33:39;;;;;;;;;;;;;;;24.00;36.81;100333.53;4437326;32;33523;-81
2022/08/11 01:36:27;;;;;;;;;;;;;;;23.87;36.89;100324.84;4394652;32;33256;-81
2022/08/11 01:38:58;;;;;;;;;;;;;;;23.72;37.36;100336.03;4452775;32;34677;-80
2022/08/11 01:44:36;;;;;;;;;;;;;;;24.00;36.72;100329.00;4453899;32;34879;-80
2022/08/11 01:44:37;;;;;;;;;;;;;;;23.87;37.05;100330.25;4442377;32;33389;-81
2022/08/11 01:50:27;;;;;;;;;;;;;;;24.25;36.62;100324.03;4452004;32;35031;-80
2022/08/11 01:53:13;;;;;;;;;;;;;;;23.77;37.38;100331.09;4427291;32;33365;-80
2022/08/11 01:56:00;;;;;;;;;;;;;;;24.11;36.46;100330.69;4439759;32;32839;-80
2022/08/11 01:58:35;;;;;;;;;;;;;;;24.14;36.51;100322.31;4453524;32;33132;-80
2022/08/11 02:01:26;;;;;;;;;;;;;;;23.85;37.09;100329.56;4440986;32;34602;-80
2022/08/11 02:03:57;;;;;;;;;;;;;;;24.10;36.61;100329.00;4435161;32;33408;-80
2022/08/11 02:09:42;;;;;;;;;;;;;;;24.15;36.43;100313.22;4428508;32;32092;-80
2022/08/11 02:12:50;;;;;;;;;;;;;;;24.07;36.50;100313.12;4413913;32;32747;-80
2022/08/11 02:15:41;;;;;;;;;;;;;;;24.31;36.42;100311.81;4396202;32;33775;-81
2022/08/11 02:18:14;;;;;;;;;;;;;;;24.25;36.25;100316.78;4440000;32;34077;-80
2022/08/11 02:26:43;;;;;;;;;;;;;;;24.09;36.80;100315.66;4439357;32;33364;-80
2022/08/11 02:29:13;;;;;;;;;;;;;;;24.07;36.84;100315.81;4426536;32;33267;-80
2022/08/11 02:35:03;;;;;;;;;;;;;;;23.86;36.74;100307.81;4452308;32;33122;-80
2022/08/11 02:37:30;;;;;;;;;;;;;;;23.91;36.96;100316.34;4453196;32;33899;-80
2022/08/11 02:39:57;;;;;;;;;;;;;;;24.05;37.09;100307.00;4426578;32;33004;-80
2022/08/11 02:42:26;;;;;;;;;;;;;;;23.83;37.59;100308.09;4440099;32;33202;-80
2022/08/11 02:45:05;;;;;;;;;;;;;;;23.98;37.41;100306.72;4425814;32;33316;-80
2022/08/11 02:47:36;;;;;;;;;;;;;;;24.13;36.96;100309.84;4428200;32;33279;-80
2022/08/11 02:50:11;;;;;;;;;;;;;;;24.04;37.13;100304.44;4440849;32;34255;-80
2022/08/11 02:52:53;;;;;;;;;;;;;;;24.00;36.72;100295.78;4441605;32;32994;-80
2022/08/11 02:55:24;;;;;;;;;;;;;;;23.66;37.69;100306.09;4453394;32;33829;-80
2022/08/11 02:58:26;;;;;;;;;;;;;;;23.70;37.53;100302.97;4443473;32;34908;-80
2022/08/11 03:01:02;;;;;;;;;;;;;;;23.76;38.05;100301.56;4454913;32;34397;-80
2022/08/11 03:03:57;;;;;;;;;;;;;;;23.80;37.54;100291.37;4441395;32;33258;-80
2022/08/11 03:06:31;;;;;;;;;;;;;;;23.84;37.49;100298.19;4438025;32;33865;-80
2022/08/11 03:09:11;;;;;;;;;;;;;;;23.81;37.43;100310.09;4455033;32;34289;-80
2022/08/11 03:17:56;;;;;;;;;;;;;;;23.36;38.86;100312.34;4439771;32;33918;-81
2022/08/11 03:20:31;;;;;;;;;;;;;;;23.73;38.02;100316.16;4454511;32;34259;-81
2022/08/11 03:23:17;;;;;;;;;;;;;;;23.57;37.56;100307.75;4441217;32;34117;-80
2022/08/11 03:25:53;;;;;;;;;;;;;;;23.56;38.25;100319.53;4441547;32;33060;-80
2022/08/11 03:28:35;;;;;;;;;;;;;;;23.77;37.62;100309.50;4440942;32;34918;-82
2022/08/11 03:31:08;;;;;;;;;;;;;;;23.56;38.53;100306.03;4440793;32;33922;-81
2022/08/11 03:36:55;;;;;;;;;;;;;;;23.76;37.78;100315.91;4443717;32;33367;-81
2022/08/11 03:39:44;;;;;;;;;;;;;;;23.72;38.35;100317.16;4435653;32;34045;-80
2022/08/11 03:42:32;;;;;;;;;;;;;;;23.46;39.40;100311.41;4455028;32;34241;-80
2022/08/11 03:45:20;;;;;;;;;;;;;;;23.52;38.33;100310.84;4441172;32;33800;-81
2022/08/11 03:48:07;;;;;;;;;;;;;;;23.39;38.50;100312.94;4426110;32;32653;-81
2022/08/11 03:50:54;;;;;;;;;;;;;;;23.65;37.77;100307.94;4454873;32;34249;-81
2022/08/11 03:53:34;;;;;;;;;;;;;;;23.73;37.27;100300.00;4454088;32;32367;-80
2022/08/11 03:56:19;;;;;;;;;;;;;;;23.44;38.69;100312.53;4453434;32;34327;-80
2022/08/11 03:59:07;;;;;;;;;;;;;;;23.49;38.17;100311.09;4440759;32;34006;-81
2022/08/11 04:01:53;;;;;;;;;;;;;;;23.48;38.16;100311.25;4439694;32;34078;-80
2022/08/11 04:04:30;;;;;;;;;;;;;;;23.47;38.05;100312.25;4454799;32;34002;-80
2022/08/11 04:07:15;;;;;;;;;;;;;;;23.23;38.58;100309.91;4440580;32;33684;-80
2022/08/11 04:09:58;;;;;;;;;;;;;;;23.34;38.54;100311.63;4432038;32;31916;-80
2022/08/11 04:12:27;;;;;;;;;;;;;;;23.69;38.45;100312.06;4441323;32;33903;-80
2022/08/11 04:18:00;;;;;;;;;;;;;;;23.99;37.20;100310.25;4441058;32;34010;-81
2022/08/11 04:20:43;;;;;;;;;;;;;;;24.15;37.06;100312.38;4454738;32;33435;-80
2022/08/11 04:23:30;;;;;;;;;;;;;;;24.06;38.07;100311.37;4440568;32;34566;-81
2022/08/11 04:26:37;;;;;;;;;;;;;;;23.86;38.25;100320.47;4453204;32;33611;-80
2022/08/11 04:29:17;;;;;;;;;;;;;;;23.74;38.44;100320.59;4454239;32;34132;-81
2022/08/11 04:31:56;;;;;;;;;;;;;;;24.00;38.49;100320.06;4415426;32;32804;-81
2022/08/11 04:34:40;;;;;;;;;;;;;;;24.21;38.72;100326.19;4440607;32;34219;-80
2022/08/11 04:37:33;;;;;;;;;;;;;;;23.91;39.19;100331.69;4440852;32;34184;-80
2022/08/11 04:40:11;;;;;;;;;;;;;;;24.32;39.63;100329.72;4431226;32;33104;-80
2022/08/11 04:45:45;;;;;;;;;;;;;;;23.76;40.99;100329.38;4440369;32;32895;-80
2022/08/11 05:02:47;;;;;;;;;;;;;;;24.13;39.99;100323.34;4452117;32;34898;-80
2022/08/11 05:05:30;;;;;;;;;;;;;;;24.17;39.32;100334.69;4437234;32;31744;-81
2022/08/11 05:08:18;;;;;;;;;;;;;;;24.60;38.80;100322.63;4440167;32;33575;-81
2022/08/11 05:10:57;;;;;;;;;;;;;;;24.61;39.50;100325.19;4453819;32;33869;-80
2022/08/11 05:36:42;;;;;;;;;;;;;;;25.32;35.60;100348.19;4441419;32;34098;-80
2022/08/11 05:56:19;;;;;;;;;;;;;;;25.73;33.82;100345.00;4435919;32;34258;-80
2022/08/11 05:58:50;;;;;;;;;;;;;;;25.65;35.23;100353.00;4427268;32;33153;-81
2022/08/11 06:01:25;;;;;;;;;;;;;;;25.58;35.27;100351.91;4427882;32;32977;-80
2022/08/11 06:06:32;;;;;;;;;;;;;;;26.05;33.48;100359.91;4428565;32;34466;-80
2022/08/11 06:09:00;;;;;;;;;;;;;;;26.02;33.96;100354.81;4411421;32;32740;-80
2022/08/11 06:11:31;;;;;;;;;;;;;;;26.00;33.21;100357.66;4436939;32;32575;-81
2022/08/11 06:14:14;;;;;;;;;;;;;;;25.73;33.66;100354.94;4434399;32;33116;-80
2022/08/11 06:16:42;;;;;;;;;;;;;;;25.92;34.78;100354.00;4436887;32;34244;-80
2022/08/11 06:19:10;;;;;;;;;;;;;;;26.00;33.13;100356.81;4437504;32;33901;-80
2022/08/11 06:21:43;;;;;;;;;;;;;;;26.05;33.10;100357.19;4432408;32;33999;-80
2022/08/11 06:24:11;;;;;;;;;;;;;;;26.43;33.04;100352.53;4435436;32;34168;-81
2022/08/11 06:26:47;;;;;;;;;;;;;;;26.41;33.41;100354.53;4416802;32;33486;-80
2022/08/11 06:29:41;;;;;;;;;;;;;;;26.17;33.55;100357.84;4429077;32;34879;-80
2022/08/11 06:32:34;;;;;;;;;;;;;;;26.12;32.65;100360.16;4413598;32;32010;-80
2022/08/11 06:35:06;;;;;;;;;;;;;;;25.93;33.11;100356.59;4420348;32;33755;-80
2022/08/11 06:37:54;;;;;;;;;;;;;;;26.28;33.14;100344.06;4417350;32;34084;-80
2022/08/11 06:40:28;;;;;;;;;;;;;;;26.34;33.77;100348.00;4430665;32;33924;-80
2022/08/11 06:43:14;;;;;;;;;;;;;;;26.49;32.96;100351.88;4430391;32;32328;-80
2022/08/11 06:45:47;;;;;;;;;;;;;;;26.47;33.05;100346.63;4427704;32;33027;-81
2022/08/11 06:48:16;;;;;;;;;;;;;;;26.88;30.91;100343.41;4412822;32;33485;-80
2022/08/11 06:53:44;;;;;;;;;;;;;;;26.89;30.68;100340.53;4436826;32;33315;-80
2022/08/11 07:05:23;;;;;;;;;;;;;;;26.62;32.13;100337.94;4438081;32;31873;-80
2022/08/11 07:16:53;;;;;;;;;;;;;;;27.16;29.10;100328.72;4431166;32;33100;-80
2022/08/11 07:30:38;;;;;;;;;;;;;;;27.38;29.04;100323.72;4425974;32;33344;-80
2022/08/11 07:33:18;;;;;;;;;;;;;;;27.24;29.52;100320.59;4426195;32;34385;-81
2022/08/11 07:36:07;;;;;;;;;;;;;;;27.14;29.78;100319.88;4435166;32;34231;-81
2022/08/11 07:38:43;;;;;;;;;;;;;;;27.48;29.05;100325.28;4436036;32;34229;-80
2022/08/11 07:41:20;;;;;;;;;;;;;;;27.62;29.30;100321.09;4423358;32;33922;-81
2022/08/11 07:44:07;;;;;;;;;;;;;;;27.56;28.83;100324.47;4413129;32;34000;-80
2022/08/11 07:52:28;;;;;;;;;;;;;;;27.90;28.38;100307.28;4408657;32;33085;-80
2022/08/11 07:55:01;;;;;;;;;;;;;;;28.05;29.62;100313.75;4424610;32;34279;-80
2022/08/11 08:18:01;;;;;;;;;;;;;;;28.53;27.04;100302.13;4428057;32;35188;-81
2022/08/11 08:20:55;;;;;;;;;;;;;;;28.61;25.57;100287.66;4433828;32;33765;-80
2022/08/11 08:23:31;;;;;;;;;;;;;;;28.27;27.02;100296.81;4425589;32;32877;-80
2022/08/11 08:31:54;;;;;;;;;;;;;;;27.71;27.30;100300.25;4435429;32;34084;-80
2022/08/11 08:34:29;;;;;;;;;;;;;;;27.70;27.98;100312.13;4431456;32;33430;-81
2022/08/11 08:37:06;;;;;;;;;;;;;;;27.61;27.80;100316.69;4417376;32;32783;-81
2022/08/11 08:39:57;;;;;;;;;;;;;;;27.73;27.77;100304.56;4435721;32;33948;-80
2022/08/11 08:42:26;;;;;;;;;;;;;;;27.69;28.43;100295.00;4433504;32;33934;-81
2022/08/11 08:45:04;;;;;;;;;;;;;;;27.62;30.84;100293.97;4435262;32;33150;-81
2022/08/11 08:47:35;;;;;;;;;;;;;;;27.91;28.88;100287.28;4435958;32;34218;-81
2022/08/11 08:50:11;;;;;;;;;;;;;;;28.22;29.92;100293.75;4437814;32;33993;-81
2022/08/11 08:53:02;;;;;;;;;;;;;;;28.45;27.35;100287.69;4435494;32;33474;-81
2022/08/11 08:55:32;;;;;;;;;;;;;;;28.37;28.60;100290.41;4424596;32;33992;-81
2022/08/11 08:58:01;;;;;;;;;;;;;;;28.18;26.94;100286.97;4426096;32;34218;-81
2022/08/11 09:00:37;;;;;;;;;;;;;;;28.24;28.08;100286.28;4417622;32;33612;-80
2022/08/11 09:06:03;;;;;;;;;;;;;;;28.79;27.41;100282.88;4424996;32;32907;-81
2022/08/11 09:08:35;;;;;;;;;;;;;;;29.17;26.95;100285.88;4410297;32;34917;-81
2022/08/11 09:13:55;;;;;;;;;;;;;;;28.60;26.27;100274.25;4433967;32;34198;-81
2022/08/11 09:16:34;;;;;;;;;;;;;;;28.49;27.59;100264.59;4409540;32;32415;-81
2022/08/11 09:19:08;;;;;;;;;;;;;;;28.80;26.23;100268.25;4425720;32;33083;-81
2022/08/11 09:26:57;;;;;;;;;;;;;;;28.33;26.79;100268.97;4425271;32;34007;-81
2022/08/11 09:27:34;;;;;;;;;;;;;;;28.50;27.43;100260.87;4433293;32;33326;-81
2022/08/11 09:30:08;;;;;;;;;;;;;;;28.77;26.71;100254.16;4416008;32;33338;-81
2022/08/11 09:32:39;;;;;;;;;;;;;;;28.65;26.44;100259.12;4418310;32;33277;-81
2022/08/11 09:35:11;;;;;;;;;;;;;;;29.26;27.23;100249.44;4436247;32;34241;-81
2022/08/11 09:40:28;;;;;;;;;;;;;;;29.47;26.07;100250.69;4436673;32;33917;-81
2022/08/11 09:45:50;;;;;;;;;;;;;;;29.99;24.65;100244.59;4434254;32;32944;-81
2022/08/11 09:48:19;;;;;;;;;;;;;;;29.94;23.55;100242.44;4432053;32;33112;-81
2022/08/11 09:50:48;;;;;;;;;;;;;;;29.57;24.59;100244.03;4431080;32;33962;-81
2022/08/11 09:53:19;;;;;;;;;;;;;;;29.46;24.33;100232.69;4421288;32;34237;-81
2022/08/11 10:01:54;;;;;;;;;;;;;;;30.12;20.99;100227.66;4421524;32;34306;-80
2022/08/11 10:04:24;;;;;;;;;;;;;;;29.91;24.84;100225.59;4409844;32;34075;-81
2022/08/11 10:07:02;;;;;;;;;;;;;;;29.63;21.47;100223.44;4419075;32;34515;-81
2022/08/11 10:09:48;;;;;;;;;;;;;;;29.69;21.25;100225.44;4421471;32;33246;-81
2022/08/11 10:12:25;;;;;;;;;;;;;;;29.17;21.64;100228.75;4402601;32;33910;-81
2022/08/11 10:20:49;;;;;;;;;;;;;;;30.07;21.62;100214.59;4423185;32;32084;-81
2022/08/11 10:34:43;;;;;;;;;;;;;;;30.09;22.50;100191.59;4409962;32;33391;-81
2022/08/11 10:37:18;;;;;;;;;;;;;;;30.48;22.26;100186.97;4421332;32;33561;-81
2022/08/11 10:39:47;;;;;;;;;;;;;;;30.63;22.13;100187.00;4417398;32;33559;-81
2022/08/11 10:48:15;;;;;;;;;;;;;;;30.64;23.14;100183.25;4422439;32;34308;-81
2022/08/11 10:59:17;;;;;;;;;;;;;;;30.51;21.65;100179.28;4425667;32;32794;-81
2022/08/11 11:01:46;;;;;;;;;;;;;;;31.11;20.90;100169.22;4427074;32;34079;-82
2022/08/11 11:04:21;;;;;;;;;;;;;;;31.08;20.08;100159.53;4427575;32;33040;-81
2022/08/11 11:07:12;;;;;;;;;;;;;;;31.59;18.67;100162.22;4426101;32;33985;-81
2022/08/11 11:09:49;;;;;;;;;;;;;;;31.50;18.78;100157.09;4419969;32;33397;-81
2022/08/11 11:21:07;;;;;;;;;;;;;;;30.32;21.32;100152.59;4432379;32;34637;-81
2022/08/11 11:23:38;;;;;;;;;;;;;;;30.12;21.01;100152.25;4425951;32;32741;-81
2022/08/11 11:29:19;;;;;;;;;;;;;;;30.44;19.55;100133.91;4393235;32;32823;-82
2022/08/11 11:32:08;;;;;;;;;;;;;;;30.72;18.50;100132.25;4421347;32;34415;-81
2022/08/11 11:34:48;;;;;;;;;;;;;;;31.04;16.94;100127.38;4406179;32;33642;-81
2022/08/11 11:39:56;;;;;;;;;;;;;;;31.82;18.42;100115.66;4410937;32;33654;-81
2022/08/11 11:42:30;;;;;;;;;;;;;;;31.49;18.65;100128.13;4423083;32;33483;-81
2022/08/11 11:45:00;;;;;;;;;;;;;;;30.77;20.44;100120.78;4422750;32;34811;-81
2022/08/11 11:47:30;;;;;;;;;;;;;;;31.34;17.70;100118.09;4425332;32;32939;-81
2022/08/11 11:50:02;;;;;;;;;;;;;;;31.11;18.03;100117.41;4420551;32;32983;-81
2022/08/11 11:52:40;;;;;;;;;;;;;;;30.62;18.99;100112.56;4432022;32;34040;-81
2022/08/11 11:55:08;;;;;;;;;;;;;;;30.45;19.44;100108.34;4433399;32;33468;-81
2022/08/11 12:03:19;;;;;;;;;;;;;;;30.55;19.56;100104.31;4423011;32;32910;-81
2022/08/11 12:05:51;;;;;;;;;;;;;;;30.95;20.79;100093.06;4418564;32;34385;-81
2022/08/11 12:08:34;;;;;;;;;;;;;;;31.25;20.33;100094.69;4433147;32;35118;-81
2022/08/11 12:14:04;;;;;;;;;;;;;;;30.93;18.46;100089.72;4417449;32;33204;-81
2022/08/11 12:16:40;;;;;;;;;;;;;;;30.99;19.50;100091.66;4434599;32;33975;-81
2022/08/11 12:19:27;;;;;;;;;;;;;;;30.81;19.00;100086.62;4425607;32;32195;-81
2022/08/11 12:27:47;;;;;;;;;;;;;;;30.44;19.35;100079.44;4426106;32;34326;-81
2022/08/11 12:30:22;;;;;;;;;;;;;;;30.83;18.60;100071.78;4424994;32;32651;-81
2022/08/11 12:32:52;;;;;;;;;;;;;;;30.62;19.09;100085.31;4425909;32;32858;-81
2022/08/11 12:35:23;;;;;;;;;;;;;;;30.58;20.10;100084.00;4422450;32;34790;-81
2022/08/11 12:37:56;;;;;;;;;;;;;;;30.26;22.93;100077.06;4439573;32;34176;-81
2022/08/11 12:46:33;;;;;;;;;;;;;;;30.67;19.63;100073.81;4427464;32;34731;-81
2022/08/11 12:51:57;;;;;;;;;;;;;;;30.87;19.75;100057.75;4424720;32;31955;-81
2022/08/11 12:54:46;;;;;;;;;;;;;;;30.55;20.93;100071.59;4422735;32;33422;-81
2022/08/11 13:05:59;;;;;;;;;;;;;;;30.23;20.83;100056.50;4428422;32;34551;-81
2022/08/11 13:14:25;;;;;;;;;;;;;;;30.67;20.51;100047.44;4432454;32;32652;-81
2022/08/11 13:19:41;;;;;;;;;;;;;;;30.61;20.71;100053.63;4425534;32;33636;-81
2022/08/11 13:22:30;;;;;;;;;;;;;;;30.56;20.79;100045.19;4432761;32;35692;-81
2022/08/11 13:24:59;;;;;;;;;;;;;;;30.22;20.98;100038.47;4434547;32;33552;-81
2022/08/11 13:27:33;;;;;;;;;;;;;;;30.43;20.93;100034.13;4431583;32;35002;-81
2022/08/11 13:33:08;;;;;;;;;;;;;;;30.68;19.90;100021.03;4411318;32;33983;-81
2022/08/11 13:35:40;;;;;;;;;;;;;;;30.46;20.68;100025.56;4427916;32;32428;-81
2022/08/11 13:38:12;;;;;;;;;;;;;;;30.68;20.48;100026.47;4424972;32;33655;-81
2022/08/11 13:40:47;;;;;;;;;;;;;;;30.29;21.02;100028.53;4426187;32;34191;-81
2022/08/11 13:43:25;;;;;;;;;;;;;;;29.74;21.62;100032.50;4437623;32;34822;-81
2022/08/11 13:48:32;;;;;;;;;;;;;;;29.69;21.83;100024.03;4425774;32;34826;-81
2022/08/11 13:56:47;;;;;;;;;;;;;;;29.80;22.10;100017.28;4424642;32;32894;-81
2022/08/11 13:59:24;;;;;;;;;;;;;;;29.33;24.12;100011.06;4424669;32;33884;-81
2022/08/11 14:02:08;;;;;;;;;;;;;;;29.83;23.17;100012.34;4435743;32;34738;-81
2022/08/11 14:05:10;;;;;;;;;;;;;;;29.48;23.40;100024.75;4427050;32;34936;-81
2022/08/11 14:07:41;;;;;;;;;;;;;;;29.39;24.38;100023.13;4435959;32;32244;-81
2022/08/11 14:10:22;;;;;;;;;;;;;;;29.13;24.14;100015.31;4419937;32;34237;-81
2022/08/11 14:15:44;;;;;;;;;;;;;;;29.48;24.12;100018.41;4438264;32;34725;-81
2022/08/11 14:18:24;;;;;;;;;;;;;;;29.73;23.58;100011.75;4411595;32;32394;-81
2022/08/11 14:23:49;;;;;;;;;;;;;;;29.62;23.02;100008.62;4426645;32;34087;-81
2022/08/11 14:26:27;;;;;;;;;;;;;;;29.74;23.24;100008.00;4424826;32;34110;-81
2022/08/11 14:28:57;;;;;;;;;;;;;;;29.78;23.63;100005.75;4425605;32;32024;-81
2022/08/11 14:31:32;;;;;;;;;;;;;;;29.56;23.62;100004.78;4424424;32;33932;-81
2022/08/11 14:34:06;;;;;;;;;;;;;;;29.84;24.60;100002.28;4423379;32;33968;-81
2022/08/11 14:36:39;;;;;;;;;;;;;;;29.77;24.29;100002.19;4424125;32;33872;-81
2022/08/11 14:39:11;;;;;;;;;;;;;;;29.58;23.75;100014.47;4438658;32;32193;-81
2022/08/11 14:47:43;;;;;;;;;;;;;;;29.64;23.83;100003.88;4435604;32;35091;-81
2022/08/11 14:50:17;;;;;;;;;;;;;;;29.10;24.36;100010.25;4438080;32;34241;-81
2022/08/11 14:52:55;;;;;;;;;;;;;;;29.30;24.21;100014.19;4431597;32;33808;-81
2022/08/11 14:58:22;;;;;;;;;;;;;;;28.99;24.62;100002.53;4434914;32;33858;-81
2022/08/11 15:03:39;;;;;;;;;;;;;;;29.03;25.63;99998.41;4427310;32;34852;-81
2022/08/11 15:06:28;;;;;;;;;;;;;;;29.21;23.92;100001.66;4427764;32;32820;-81
2022/08/11 15:09:03;;;;;;;;;;;;;;;29.51;23.22;99997.12;4426748;32;34506;-81
2022/08/11 15:17:27;;;;;;;;;;;;;;;29.60;24.01;99995.22;4423206;32;33279;-81
2022/08/11 15:25:53;;;;;;;;;;;;;;;29.68;23.19;99992.44;4423380;32;33867;-81
2022/08/11 15:45:46;;;;;;;;;;;;;;;29.53;23.14;99989.66;4425853;32;33961;-82
2022/08/11 15:46:01;;;;;;;;;;;;;;;29.12;23.29;99986.44;4419650;32;32085;-81
2022/08/11 15:48:45;;;;;;;;;;;;;;;29.18;23.10;99983.00;4427109;32;34595;-81
2022/08/11 15:51:26;;;;;;;;;;;;;;;29.16;22.60;99984.22;4413810;32;32906;-81
2022/08/11 15:53:57;;;;;;;;;;;;;;;29.28;23.20;99980.84;4439558;32;34320;-82
2022/08/11 15:56:27;;;;;;;;;;;;;;;29.45;22.61;99978.84;4426250;32;32792;-81
2022/08/11 16:07:26;;;;;;;;;;;;;;;29.34;22.83;99980.16;4426497;32;33264;-81
2022/08/11 16:10:06;;;;;;;;;;;;;;;29.39;22.72;99976.00;4434881;32;33017;-81
2022/08/11 16:16:14;;;;;;;;;;;;;;;29.26;22.28;99977.50;4395536;32;32715;-81
2022/08/11 16:18:54;;;;;;;;;;;;;;;29.22;21.77;99969.87;4410619;32;34035;-81
2022/08/11 16:21:25;;;;;;;;;;;;;;;29.20;22.00;99972.78;4425245;32;34007;-81
2022/08/11 16:24:10;;;;;;;;;;;;;;;29.20;22.08;99978.22;4435699;32;35001;-81
2022/08/11 16:27:13;;;;;;;;;;;;;;;29.32;22.17;99970.47;4432798;32;33800;-81
2022/08/11 16:29:48;;;;;;;;;;;;;;;29.38;22.31;99974.31;4434799;32;31882;-81
2022/08/11 16:40:41;;;;;;;;;;;;;;;29.29;22.63;99968.97;4427375;32;34310;-81
2022/08/11 16:48:54;;;;;;;;;;;;;;;29.28;22.85;99974.56;4426059;32;33931;-81
2022/08/11 16:51:30;;;;;;;;;;;;;;;29.02;23.65;99975.81;4421638;32;34102;-82
2022/08/11 16:54:03;;;;;;;;;;;;;;;28.94;24.02;99969.56;4425024;32;33776;-81
2022/08/11 16:56:43;;;;;;;;;;;;;;;28.91;24.08;99969.91;4422477;32;33972;-81
2022/08/11 16:59:17;;;;;;;;;;;;;;;28.81;24.62;99979.16;4435276;32;33210;-81
2022/08/11 17:13:34;;;;;;;;;;;;;;;28.74;25.52;99986.34;4435528;32;32704;-81
2022/08/11 17:16:06;;;;;;;;;;;;;;;28.48;25.93;99977.66;4425356;32;33421;-81
2022/08/11 17:18:41;;;;;;;;;;;;;;;28.60;25.91;99976.25;4432817;32;32827;-81
2022/08/11 17:21:21;;;;;;;;;;;;;;;28.66;26.06;99975.53;4412973;32;33432;-81
2022/08/11 17:24:00;;;;;;;;;;;;;;;28.62;26.02;99976.91;4422310;32;33737;-81
2022/08/11 17:26:57;;;;;;;;;;;;;;;28.53;26.24;99980.69;4426790;32;34962;-81
2022/08/11 17:29:38;;;;;;;;;;;;;;;28.47;26.37;99978.69;4424652;32;33889;-81
2022/08/11 17:35:31;;;;;;;;;;;;;;;28.00;27.21;99998.56;4433199;32;32120;-81
2022/08/11 17:38:09;;;;;;;;;;;;;;;27.50;28.41;100007.81;4412794;32;33159;-81
2022/08/11 17:49:20;;;;;;;;;;;;;;;26.81;30.48;100027.03;4426230;32;33830;-82
2022/08/11 18:00:16;;;;;;;;;;;;;;;26.03;32.27;100037.22;4440754;32;33791;-81
2022/08/11 18:05:48;;;;;;;;;;;;;;;25.77;32.83;100037.22;4439312;32;34959;-80
